sensor_id;sensor_type;location;lat;lon;timestamp;P1;durP1;ratioP1;P2;durP2;ratioP2
28266;SDS011;15525;45.568;5.448;2023-01-23T00:00:49;31.58;;;15.63;;
28266;SDS011;15525;45.568;5.448;2023-01-23T00:03:15;32.83;;;16.20;;
28266;SDS011;15525;45.568;5.448;2023-01-23T00:05:40;37.25;;;16.80;;
28266;SDS011;15525;45.568;5.448;2023-01-23T00:08:06;32.58;;;15.63;;
28266;SDS011;15525;45.568;5.448;2023-01-23T00:10:31;36.95;;;16.70;;
28266;SDS011;15525;45.568;5.448;2023-01-23T00:12:57;34.92;;;16.42;;
28266;SDS011;15525;45.568;5.448;2023-01-23T00:15:22;32.88;;;15.77;;
28266;SDS011;15525;45.568;5.448;2023-01-23T00:17:49;33.40;;;14.73;;
28266;SDS011;15525;45.568;5.448;2023-01-23T00:20:14;31.15;;;15.20;;
28266;SDS011;15525;45.568;5.448;2023-01-23T00:22:40;33.55;;;16.58;;
28266;SDS011;15525;45.568;5.448;2023-01-23T00:25:07;35.80;;;16.75;;
28266;SDS011;15525;45.568;5.448;2023-01-23T00:27:33;32.85;;;16.15;;
28266;SDS011;15525;45.568;5.448;2023-01-23T00:29:59;33.05;;;15.75;;
28266;SDS011;15525;45.568;5.448;2023-01-23T00:32:24;32.47;;;15.55;;
28266;SDS011;15525;45.568;5.448;2023-01-23T00:34:50;33.08;;;16.35;;
28266;SDS011;15525;45.568;5.448;2023-01-23T00:37:15;34.67;;;16.60;;
28266;SDS011;15525;45.568;5.448;2023-01-23T00:39:41;31.98;;;15.93;;
28266;SDS011;15525;45.568;5.448;2023-01-23T00:42:07;30.67;;;14.88;;
28266;SDS011;15525;45.568;5.448;2023-01-23T00:44:32;31.77;;;15.30;;
28266;SDS011;15525;45.568;5.448;2023-01-23T00:46:58;31.58;;;15.30;;
28266;SDS011;15525;45.568;5.448;2023-01-23T00:49:24;31.48;;;14.98;;
28266;SDS011;15525;45.568;5.448;2023-01-23T00:51:49;31.90;;;15.57;;
28266;SDS011;15525;45.568;5.448;2023-01-23T00:54:15;32.03;;;15.05;;
28266;SDS011;15525;45.568;5.448;2023-01-23T00:56:41;31.73;;;15.63;;
28266;SDS011;15525;45.568;5.448;2023-01-23T00:59:07;32.67;;;15.05;;
28266;SDS011;15525;45.568;5.448;2023-01-23T01:01:33;33.08;;;16.15;;
28266;SDS011;15525;45.568;5.448;2023-01-23T01:03:59;32.45;;;15.55;;
28266;SDS011;15525;45.568;5.448;2023-01-23T01:06:25;33.55;;;16.40;;
28266;SDS011;15525;45.568;5.448;2023-01-23T01:08:50;33.92;;;15.45;;
28266;SDS011;15525;45.568;5.448;2023-01-23T01:11:16;32.60;;;15.73;;
28266;SDS011;15525;45.568;5.448;2023-01-23T01:13:42;33.75;;;15.70;;
28266;SDS011;15525;45.568;5.448;2023-01-23T01:16:09;34.47;;;15.88;;
28266;SDS011;15525;45.568;5.448;2023-01-23T01:18:35;32.30;;;15.02;;
28266;SDS011;15525;45.568;5.448;2023-01-23T01:21:04;30.92;;;14.85;;
28266;SDS011;15525;45.568;5.448;2023-01-23T01:23:34;33.88;;;15.93;;
28266;SDS011;15525;45.568;5.448;2023-01-23T01:26:00;34.17;;;16.02;;
28266;SDS011;15525;45.568;5.448;2023-01-23T01:28:27;33.08;;;15.07;;
28266;SDS011;15525;45.568;5.448;2023-01-23T01:30:54;29.67;;;14.50;;
28266;SDS011;15525;45.568;5.448;2023-01-23T01:33:21;33.42;;;15.60;;
28266;SDS011;15525;45.568;5.448;2023-01-23T01:35:48;32.13;;;15.50;;
28266;SDS011;15525;45.568;5.448;2023-01-23T01:38:13;31.80;;;16.08;;
28266;SDS011;15525;45.568;5.448;2023-01-23T01:40:39;34.88;;;15.95;;
28266;SDS011;15525;45.568;5.448;2023-01-23T01:43:06;33.30;;;15.27;;
28266;SDS011;15525;45.568;5.448;2023-01-23T01:51:32;33.88;;;15.10;;
28266;SDS011;15525;45.568;5.448;2023-01-23T01:54:05;32.72;;;15.93;;
28266;SDS011;15525;45.568;5.448;2023-01-23T01:56:40;35.05;;;16.40;;
28266;SDS011;15525;45.568;5.448;2023-01-23T01:59:09;34.28;;;15.32;;
28266;SDS011;15525;45.568;5.448;2023-01-23T02:01:36;32.08;;;15.00;;
28266;SDS011;15525;45.568;5.448;2023-01-23T02:04:04;33.42;;;14.95;;
28266;SDS011;15525;45.568;5.448;2023-01-23T02:06:31;33.00;;;15.95;;
28266;SDS011;15525;45.568;5.448;2023-01-23T02:09:29;33.38;;;15.50;;
28266;SDS011;15525;45.568;5.448;2023-01-23T02:14:16;32.08;;;15.10;;
28266;SDS011;15525;45.568;5.448;2023-01-23T02:16:41;34.83;;;15.85;;
28266;SDS011;15525;45.568;5.448;2023-01-23T02:19:33;35.70;;;16.05;;
28266;SDS011;15525;45.568;5.448;2023-01-23T02:22:15;31.83;;;15.20;;
28266;SDS011;15525;45.568;5.448;2023-01-23T02:27:41;34.47;;;16.50;;
28266;SDS011;15525;45.568;5.448;2023-01-23T02:30:07;32.72;;;16.20;;
28266;SDS011;15525;45.568;5.448;2023-01-23T02:32:33;34.85;;;16.05;;
28266;SDS011;15525;45.568;5.448;2023-01-23T02:34:59;37.85;;;17.35;;
28266;SDS011;15525;45.568;5.448;2023-01-23T02:37:32;34.15;;;15.95;;
28266;SDS011;15525;45.568;5.448;2023-01-23T02:39:59;34.30;;;16.67;;
28266;SDS011;15525;45.568;5.448;2023-01-23T02:42:27;34.10;;;16.27;;
28266;SDS011;15525;45.568;5.448;2023-01-23T02:44:54;35.42;;;16.88;;
28266;SDS011;15525;45.568;5.448;2023-01-23T02:47:20;35.60;;;16.13;;
28266;SDS011;15525;45.568;5.448;2023-01-23T02:49:46;35.70;;;15.95;;
28266;SDS011;15525;45.568;5.448;2023-01-23T02:52:11;35.45;;;16.52;;
28266;SDS011;15525;45.568;5.448;2023-01-23T02:54:37;33.58;;;16.33;;
28266;SDS011;15525;45.568;5.448;2023-01-23T02:57:04;34.25;;;15.88;;
28266;SDS011;15525;45.568;5.448;2023-01-23T02:59:29;37.08;;;17.02;;
28266;SDS011;15525;45.568;5.448;2023-01-23T03:04:39;35.03;;;15.65;;
28266;SDS011;15525;45.568;5.448;2023-01-23T03:07:05;36.67;;;16.45;;
28266;SDS011;15525;45.568;5.448;2023-01-23T03:09:30;37.05;;;16.67;;
28266;SDS011;15525;45.568;5.448;2023-01-23T03:11:57;34.38;;;15.93;;
28266;SDS011;15525;45.568;5.448;2023-01-23T03:14:23;39.00;;;16.85;;
28266;SDS011;15525;45.568;5.448;2023-01-23T03:16:48;35.60;;;15.90;;
28266;SDS011;15525;45.568;5.448;2023-01-23T03:19:18;34.38;;;16.02;;
28266;SDS011;15525;45.568;5.448;2023-01-23T03:21:44;34.00;;;16.42;;
28266;SDS011;15525;45.568;5.448;2023-01-23T03:24:11;31.88;;;15.07;;
28266;SDS011;15525;45.568;5.448;2023-01-23T03:26:38;31.42;;;15.38;;
28266;SDS011;15525;45.568;5.448;2023-01-23T03:29:05;35.13;;;16.17;;
28266;SDS011;15525;45.568;5.448;2023-01-23T03:31:50;32.38;;;16.00;;
28266;SDS011;15525;45.568;5.448;2023-01-23T03:34:15;32.65;;;15.50;;
28266;SDS011;15525;45.568;5.448;2023-01-23T03:36:46;34.88;;;15.75;;
28266;SDS011;15525;45.568;5.448;2023-01-23T03:39:11;31.33;;;15.18;;
28266;SDS011;15525;45.568;5.448;2023-01-23T03:44:21;29.75;;;14.57;;
28266;SDS011;15525;45.568;5.448;2023-01-23T03:46:49;32.85;;;14.57;;
28266;SDS011;15525;45.568;5.448;2023-01-23T03:49:16;31.23;;;14.80;;
28266;SDS011;15525;45.568;5.448;2023-01-23T03:51:41;32.70;;;16.15;;
28266;SDS011;15525;45.568;5.448;2023-01-23T03:54:07;33.95;;;16.08;;
28266;SDS011;15525;45.568;5.448;2023-01-23T03:56:32;30.83;;;14.95;;
28266;SDS011;15525;45.568;5.448;2023-01-23T03:58:58;30.92;;;14.88;;
28266;SDS011;15525;45.568;5.448;2023-01-23T04:01:24;31.25;;;14.40;;
28266;SDS011;15525;45.568;5.448;2023-01-23T04:03:50;29.92;;;14.15;;
28266;SDS011;15525;45.568;5.448;2023-01-23T04:06:15;35.38;;;15.60;;
28266;SDS011;15525;45.568;5.448;2023-01-23T04:08:41;30.30;;;15.10;;
28266;SDS011;15525;45.568;5.448;2023-01-23T04:11:07;28.85;;;14.40;;
28266;SDS011;15525;45.568;5.448;2023-01-23T04:13:34;35.63;;;16.42;;
28266;SDS011;15525;45.568;5.448;2023-01-23T04:15:59;33.50;;;16.23;;
28266;SDS011;15525;45.568;5.448;2023-01-23T04:18:25;32.88;;;15.55;;
28266;SDS011;15525;45.568;5.448;2023-01-23T04:20:51;34.40;;;16.17;;
28266;SDS011;15525;45.568;5.448;2023-01-23T04:23:16;32.78;;;15.10;;
28266;SDS011;15525;45.568;5.448;2023-01-23T04:25:42;31.05;;;14.25;;
28266;SDS011;15525;45.568;5.448;2023-01-23T04:28:07;33.55;;;15.90;;
28266;SDS011;15525;45.568;5.448;2023-01-23T04:30:33;34.80;;;15.93;;
28266;SDS011;15525;45.568;5.448;2023-01-23T04:32:58;30.58;;;14.85;;
28266;SDS011;15525;45.568;5.448;2023-01-23T04:35:24;33.00;;;15.18;;
28266;SDS011;15525;45.568;5.448;2023-01-23T04:37:49;31.95;;;15.18;;
28266;SDS011;15525;45.568;5.448;2023-01-23T04:40:15;30.55;;;14.68;;
28266;SDS011;15525;45.568;5.448;2023-01-23T04:42:40;34.83;;;15.88;;
28266;SDS011;15525;45.568;5.448;2023-01-23T04:45:06;33.53;;;15.50;;
28266;SDS011;15525;45.568;5.448;2023-01-23T04:47:33;32.63;;;14.85;;
28266;SDS011;15525;45.568;5.448;2023-01-23T04:49:58;33.58;;;15.15;;
28266;SDS011;15525;45.568;5.448;2023-01-23T04:52:24;32.25;;;14.90;;
28266;SDS011;15525;45.568;5.448;2023-01-23T04:54:49;30.80;;;14.88;;
28266;SDS011;15525;45.568;5.448;2023-01-23T04:57:15;33.53;;;15.95;;
28266;SDS011;15525;45.568;5.448;2023-01-23T04:59:40;34.08;;;15.43;;
28266;SDS011;15525;45.568;5.448;2023-01-23T05:02:05;30.92;;;15.55;;
28266;SDS011;15525;45.568;5.448;2023-01-23T05:04:31;35.42;;;15.00;;
28266;SDS011;15525;45.568;5.448;2023-01-23T05:06:56;30.23;;;14.07;;
28266;SDS011;15525;45.568;5.448;2023-01-23T05:09:22;34.42;;;15.13;;
28266;SDS011;15525;45.568;5.448;2023-01-23T05:11:47;31.67;;;14.77;;
28266;SDS011;15525;45.568;5.448;2023-01-23T05:14:13;34.72;;;15.77;;
28266;SDS011;15525;45.568;5.448;2023-01-23T05:16:38;28.33;;;14.80;;
28266;SDS011;15525;45.568;5.448;2023-01-23T05:19:03;32.38;;;15.65;;
28266;SDS011;15525;45.568;5.448;2023-01-23T05:21:29;35.10;;;15.73;;
28266;SDS011;15525;45.568;5.448;2023-01-23T05:23:54;29.98;;;15.18;;
28266;SDS011;15525;45.568;5.448;2023-01-23T05:26:20;33.13;;;15.57;;
28266;SDS011;15525;45.568;5.448;2023-01-23T05:28:45;34.40;;;15.27;;
28266;SDS011;15525;45.568;5.448;2023-01-23T05:31:11;34.03;;;15.73;;
28266;SDS011;15525;45.568;5.448;2023-01-23T05:33:36;29.05;;;14.48;;
28266;SDS011;15525;45.568;5.448;2023-01-23T05:36:02;30.17;;;14.68;;
28266;SDS011;15525;45.568;5.448;2023-01-23T05:38:27;32.38;;;15.32;;
28266;SDS011;15525;45.568;5.448;2023-01-23T05:40:53;29.70;;;14.27;;
28266;SDS011;15525;45.568;5.448;2023-01-23T05:43:18;32.65;;;14.68;;
28266;SDS011;15525;45.568;5.448;2023-01-23T05:45:43;30.58;;;14.88;;
28266;SDS011;15525;45.568;5.448;2023-01-23T05:48:09;30.27;;;13.93;;
28266;SDS011;15525;45.568;5.448;2023-01-23T05:50:34;29.77;;;14.40;;
28266;SDS011;15525;45.568;5.448;2023-01-23T05:53:00;30.48;;;14.70;;
28266;SDS011;15525;45.568;5.448;2023-01-23T05:55:25;28.98;;;14.65;;
28266;SDS011;15525;45.568;5.448;2023-01-23T05:57:50;31.95;;;15.05;;
28266;SDS011;15525;45.568;5.448;2023-01-23T06:00:16;30.73;;;15.20;;
28266;SDS011;15525;45.568;5.448;2023-01-23T06:02:42;35.20;;;15.90;;
28266;SDS011;15525;45.568;5.448;2023-01-23T06:05:08;35.58;;;15.80;;
28266;SDS011;15525;45.568;5.448;2023-01-23T06:07:33;32.88;;;16.10;;
28266;SDS011;15525;45.568;5.448;2023-01-23T06:09:59;35.53;;;16.73;;
28266;SDS011;15525;45.568;5.448;2023-01-23T06:12:24;32.83;;;15.77;;
28266;SDS011;15525;45.568;5.448;2023-01-23T06:14:50;34.38;;;15.32;;
28266;SDS011;15525;45.568;5.448;2023-01-23T06:17:15;34.78;;;15.98;;
28266;SDS011;15525;45.568;5.448;2023-01-23T06:19:41;32.97;;;16.10;;
28266;SDS011;15525;45.568;5.448;2023-01-23T06:22:06;34.15;;;15.98;;
28266;SDS011;15525;45.568;5.448;2023-01-23T06:24:32;30.10;;;15.00;;
28266;SDS011;15525;45.568;5.448;2023-01-23T06:26:57;31.90;;;15.35;;
28266;SDS011;15525;45.568;5.448;2023-01-23T06:29:23;29.25;;;14.18;;
28266;SDS011;15525;45.568;5.448;2023-01-23T06:31:48;33.95;;;15.70;;
28266;SDS011;15525;45.568;5.448;2023-01-23T06:34:14;33.83;;;15.77;;
28266;SDS011;15525;45.568;5.448;2023-01-23T06:36:40;35.53;;;15.88;;
28266;SDS011;15525;45.568;5.448;2023-01-23T06:39:06;33.53;;;15.98;;
28266;SDS011;15525;45.568;5.448;2023-01-23T06:41:32;35.67;;;16.00;;
28266;SDS011;15525;45.568;5.448;2023-01-23T06:43:57;36.42;;;16.85;;
28266;SDS011;15525;45.568;5.448;2023-01-23T06:46:23;36.25;;;16.40;;
28266;SDS011;15525;45.568;5.448;2023-01-23T06:48:48;32.33;;;15.68;;
28266;SDS011;15525;45.568;5.448;2023-01-23T06:51:16;34.55;;;16.38;;
28266;SDS011;15525;45.568;5.448;2023-01-23T06:53:41;35.17;;;16.23;;
28266;SDS011;15525;45.568;5.448;2023-01-23T06:56:06;33.83;;;15.88;;
28266;SDS011;15525;45.568;5.448;2023-01-23T06:58:33;32.53;;;15.38;;
28266;SDS011;15525;45.568;5.448;2023-01-23T07:00:58;34.47;;;15.50;;
28266;SDS011;15525;45.568;5.448;2023-01-23T07:03:24;35.17;;;16.17;;
28266;SDS011;15525;45.568;5.448;2023-01-23T07:05:49;32.45;;;15.45;;
28266;SDS011;15525;45.568;5.448;2023-01-23T07:08:15;31.70;;;15.35;;
28266;SDS011;15525;45.568;5.448;2023-01-23T07:10:41;34.85;;;16.17;;
28266;SDS011;15525;45.568;5.448;2023-01-23T07:13:08;32.08;;;15.43;;
28266;SDS011;15525;45.568;5.448;2023-01-23T07:15:35;33.60;;;15.27;;
28266;SDS011;15525;45.568;5.448;2023-01-23T07:18:01;32.38;;;15.70;;
28266;SDS011;15525;45.568;5.448;2023-01-23T07:20:27;32.60;;;15.43;;
28266;SDS011;15525;45.568;5.448;2023-01-23T07:22:53;30.80;;;15.85;;
28266;SDS011;15525;45.568;5.448;2023-01-23T07:25:20;32.72;;;15.68;;
28266;SDS011;15525;45.568;5.448;2023-01-23T07:27:46;31.80;;;15.88;;
28266;SDS011;15525;45.568;5.448;2023-01-23T07:30:12;33.20;;;15.68;;
28266;SDS011;15525;45.568;5.448;2023-01-23T07:32:37;32.47;;;14.98;;
28266;SDS011;15525;45.568;5.448;2023-01-23T07:35:03;32.20;;;15.38;;
28266;SDS011;15525;45.568;5.448;2023-01-23T07:37:29;34.88;;;16.25;;
28266;SDS011;15525;45.568;5.448;2023-01-23T07:39:54;29.70;;;13.95;;
28266;SDS011;15525;45.568;5.448;2023-01-23T07:42:20;32.60;;;15.00;;
28266;SDS011;15525;45.568;5.448;2023-01-23T07:44:45;33.35;;;15.60;;
28266;SDS011;15525;45.568;5.448;2023-01-23T07:47:11;32.78;;;15.07;;
28266;SDS011;15525;45.568;5.448;2023-01-23T07:49:36;35.17;;;15.85;;
28266;SDS011;15525;45.568;5.448;2023-01-23T07:52:02;33.05;;;15.13;;
28266;SDS011;15525;45.568;5.448;2023-01-23T07:54:28;29.75;;;14.60;;
28266;SDS011;15525;45.568;5.448;2023-01-23T07:56:53;33.92;;;15.98;;
28266;SDS011;15525;45.568;5.448;2023-01-23T07:59:19;31.67;;;15.00;;
28266;SDS011;15525;45.568;5.448;2023-01-23T08:01:44;31.42;;;15.30;;
28266;SDS011;15525;45.568;5.448;2023-01-23T08:04:09;31.25;;;15.43;;
28266;SDS011;15525;45.568;5.448;2023-01-23T08:06:35;33.80;;;14.77;;
28266;SDS011;15525;45.568;5.448;2023-01-23T08:09:02;34.90;;;15.63;;
28266;SDS011;15525;45.568;5.448;2023-01-23T08:11:27;30.45;;;14.50;;
28266;SDS011;15525;45.568;5.448;2023-01-23T08:13:53;32.42;;;15.20;;
28266;SDS011;15525;45.568;5.448;2023-01-23T08:16:19;28.25;;;14.63;;
28266;SDS011;15525;45.568;5.448;2023-01-23T08:18:44;36.45;;;15.77;;
28266;SDS011;15525;45.568;5.448;2023-01-23T08:21:10;32.92;;;15.23;;
28266;SDS011;15525;45.568;5.448;2023-01-23T08:23:42;33.63;;;14.90;;
28266;SDS011;15525;45.568;5.448;2023-01-23T08:26:09;34.83;;;14.68;;
28266;SDS011;15525;45.568;5.448;2023-01-23T08:28:35;31.45;;;16.05;;
28266;SDS011;15525;45.568;5.448;2023-01-23T08:31:02;31.40;;;15.23;;
28266;SDS011;15525;45.568;5.448;2023-01-23T08:33:32;30.40;;;14.93;;
28266;SDS011;15525;45.568;5.448;2023-01-23T08:35:59;33.03;;;15.65;;
28266;SDS011;15525;45.568;5.448;2023-01-23T08:38:25;32.65;;;15.38;;
28266;SDS011;15525;45.568;5.448;2023-01-23T08:40:51;31.17;;;14.73;;
28266;SDS011;15525;45.568;5.448;2023-01-23T08:43:18;31.88;;;15.82;;
28266;SDS011;15525;45.568;5.448;2023-01-23T08:45:46;29.75;;;14.55;;
28266;SDS011;15525;45.568;5.448;2023-01-23T08:48:13;29.95;;;14.75;;
28266;SDS011;15525;45.568;5.448;2023-01-23T08:50:39;29.92;;;14.32;;
28266;SDS011;15525;45.568;5.448;2023-01-23T08:53:04;30.92;;;14.15;;
28266;SDS011;15525;45.568;5.448;2023-01-23T08:55:30;29.63;;;14.80;;
28266;SDS011;15525;45.568;5.448;2023-01-23T08:57:57;29.92;;;14.35;;
28266;SDS011;15525;45.568;5.448;2023-01-23T09:00:23;29.55;;;14.65;;
28266;SDS011;15525;45.568;5.448;2023-01-23T09:02:49;30.88;;;14.60;;
28266;SDS011;15525;45.568;5.448;2023-01-23T09:05:15;29.92;;;14.60;;
28266;SDS011;15525;45.568;5.448;2023-01-23T09:07:41;32.40;;;15.27;;
28266;SDS011;15525;45.568;5.448;2023-01-23T09:10:07;28.55;;;13.95;;
28266;SDS011;15525;45.568;5.448;2023-01-23T09:12:33;30.20;;;14.55;;
28266;SDS011;15525;45.568;5.448;2023-01-23T09:14:58;32.10;;;15.30;;
28266;SDS011;15525;45.568;5.448;2023-01-23T09:17:24;33.03;;;15.48;;
28266;SDS011;15525;45.568;5.448;2023-01-23T09:19:50;28.23;;;13.95;;
28266;SDS011;15525;45.568;5.448;2023-01-23T09:22:15;31.38;;;14.90;;
28266;SDS011;15525;45.568;5.448;2023-01-23T09:24:41;30.13;;;14.43;;
28266;SDS011;15525;45.568;5.448;2023-01-23T09:27:06;31.90;;;14.63;;
28266;SDS011;15525;45.568;5.448;2023-01-23T09:29:32;32.47;;;15.88;;
28266;SDS011;15525;45.568;5.448;2023-01-23T09:31:57;31.90;;;14.30;;
28266;SDS011;15525;45.568;5.448;2023-01-23T09:34:23;31.33;;;15.48;;
28266;SDS011;15525;45.568;5.448;2023-01-23T09:36:49;32.85;;;14.65;;
28266;SDS011;15525;45.568;5.448;2023-01-23T09:39:14;30.65;;;14.48;;
28266;SDS011;15525;45.568;5.448;2023-01-23T09:41:40;28.67;;;14.85;;
28266;SDS011;15525;45.568;5.448;2023-01-23T09:44:19;34.17;;;15.57;;
28266;SDS011;15525;45.568;5.448;2023-01-23T09:47:01;34.47;;;15.77;;
28266;SDS011;15525;45.568;5.448;2023-01-23T09:52:16;29.48;;;13.40;;
28266;SDS011;15525;45.568;5.448;2023-01-23T09:57:32;33.15;;;15.45;;
28266;SDS011;15525;45.568;5.448;2023-01-23T10:00:04;33.30;;;15.88;;
28266;SDS011;15525;45.568;5.448;2023-01-23T10:02:33;28.73;;;13.63;;
28266;SDS011;15525;45.568;5.448;2023-01-23T10:04:59;29.88;;;14.93;;
28266;SDS011;15525;45.568;5.448;2023-01-23T10:07:34;29.10;;;14.40;;
28266;SDS011;15525;45.568;5.448;2023-01-23T10:16:30;30.90;;;14.02;;
28266;SDS011;15525;45.568;5.448;2023-01-23T10:21:51;28.52;;;13.57;;
28266;SDS011;15525;45.568;5.448;2023-01-23T10:24:34;30.13;;;14.40;;
28266;SDS011;15525;45.568;5.448;2023-01-23T10:27:04;29.55;;;13.63;;
28266;SDS011;15525;45.568;5.448;2023-01-23T10:29:44;31.92;;;15.40;;
28266;SDS011;15525;45.568;5.448;2023-01-23T10:32:19;31.33;;;15.73;;
28266;SDS011;15525;45.568;5.448;2023-01-23T10:37:39;29.70;;;14.40;;
28266;SDS011;15525;45.568;5.448;2023-01-23T10:40:13;28.27;;;13.43;;
28266;SDS011;15525;45.568;5.448;2023-01-23T10:43:04;29.15;;;13.57;;
28266;SDS011;15525;45.568;5.448;2023-01-23T10:45:44;29.73;;;14.10;;
28266;SDS011;15525;45.568;5.448;2023-01-23T10:48:27;28.55;;;14.07;;
28266;SDS011;15525;45.568;5.448;2023-01-23T10:51:02;27.88;;;14.40;;
28266;SDS011;15525;45.568;5.448;2023-01-23T10:53:28;28.42;;;14.23;;
28266;SDS011;15525;45.568;5.448;2023-01-23T10:55:54;32.42;;;14.80;;
28266;SDS011;15525;45.568;5.448;2023-01-23T10:58:31;30.33;;;14.57;;
28266;SDS011;15525;45.568;5.448;2023-01-23T11:01:01;31.27;;;14.38;;
28266;SDS011;15525;45.568;5.448;2023-01-23T11:08:31;31.20;;;13.82;;
28266;SDS011;15525;45.568;5.448;2023-01-23T11:13:41;28.33;;;14.07;;
28266;SDS011;15525;45.568;5.448;2023-01-23T11:16:15;31.00;;;14.98;;
28266;SDS011;15525;45.568;5.448;2023-01-23T11:18:45;27.75;;;14.43;;
28266;SDS011;15525;45.568;5.448;2023-01-23T11:21:20;29.92;;;14.38;;
28266;SDS011;15525;45.568;5.448;2023-01-23T11:26:47;32.33;;;15.27;;
28266;SDS011;15525;45.568;5.448;2023-01-23T11:29:24;29.25;;;14.57;;
28266;SDS011;15525;45.568;5.448;2023-01-23T11:32:02;30.60;;;14.27;;
28266;SDS011;15525;45.568;5.448;2023-01-23T11:34:35;29.17;;;14.00;;
28266;SDS011;15525;45.568;5.448;2023-01-23T11:37:12;28.35;;;14.05;;
28266;SDS011;15525;45.568;5.448;2023-01-23T11:39:47;33.45;;;14.73;;
28266;SDS011;15525;45.568;5.448;2023-01-23T11:42:18;26.55;;;13.27;;
28266;SDS011;15525;45.568;5.448;2023-01-23T11:44:44;28.02;;;14.32;;
28266;SDS011;15525;45.568;5.448;2023-01-23T11:47:24;30.83;;;14.50;;
28266;SDS011;15525;45.568;5.448;2023-01-23T11:58:11;33.38;;;15.48;;
28266;SDS011;15525;45.568;5.448;2023-01-23T12:11:42;30.88;;;14.57;;
28266;SDS011;15525;45.568;5.448;2023-01-23T12:23:24;28.20;;;14.15;;
28266;SDS011;15525;45.568;5.448;2023-01-23T12:29:16;29.83;;;14.55;;
28266;SDS011;15525;45.568;5.448;2023-01-23T12:43:29;27.70;;;13.55;;
28266;SDS011;15525;45.568;5.448;2023-01-23T12:45:56;27.77;;;13.82;;
28266;SDS011;15525;45.568;5.448;2023-01-23T12:48:40;28.35;;;13.93;;
28266;SDS011;15525;45.568;5.448;2023-01-23T12:51:17;29.35;;;14.20;;
28266;SDS011;15525;45.568;5.448;2023-01-23T12:54:03;28.60;;;13.05;;
28266;SDS011;15525;45.568;5.448;2023-01-23T12:56:34;25.23;;;13.32;;
28266;SDS011;15525;45.568;5.448;2023-01-23T13:01:45;28.40;;;13.77;;
28266;SDS011;15525;45.568;5.448;2023-01-23T13:07:23;25.70;;;12.68;;
28266;SDS011;15525;45.568;5.448;2023-01-23T13:10:12;27.00;;;12.63;;
28266;SDS011;15525;45.568;5.448;2023-01-23T13:12:46;27.90;;;13.90;;
28266;SDS011;15525;45.568;5.448;2023-01-23T13:17:43;28.25;;;13.60;;
28266;SDS011;15525;45.568;5.448;2023-01-23T13:23:31;27.17;;;13.88;;
28266;SDS011;15525;45.568;5.448;2023-01-23T13:28:53;27.98;;;13.82;;
28266;SDS011;15525;45.568;5.448;2023-01-23T13:36:51;34.10;;;17.55;;
28266;SDS011;15525;45.568;5.448;2023-01-23T13:39:28;30.80;;;14.65;;
28266;SDS011;15525;45.568;5.448;2023-01-23T13:47:44;26.38;;;13.85;;
28266;SDS011;15525;45.568;5.448;2023-01-23T13:50:48;30.05;;;14.30;;
28266;SDS011;15525;45.568;5.448;2023-01-23T13:53:22;27.08;;;13.98;;
28266;SDS011;15525;45.568;5.448;2023-01-23T13:56:15;30.13;;;14.93;;
28266;SDS011;15525;45.568;5.448;2023-01-23T13:59:03;36.03;;;16.67;;
28266;SDS011;15525;45.568;5.448;2023-01-23T14:01:36;40.55;;;18.73;;
28266;SDS011;15525;45.568;5.448;2023-01-23T14:04:29;43.20;;;20.05;;
28266;SDS011;15525;45.568;5.448;2023-01-23T14:07:24;31.52;;;16.17;;
28266;SDS011;15525;45.568;5.448;2023-01-23T14:10:13;34.42;;;17.27;;
28266;SDS011;15525;45.568;5.448;2023-01-23T14:12:41;35.08;;;18.08;;
28266;SDS011;15525;45.568;5.448;2023-01-23T14:15:19;34.13;;;17.17;;
28266;SDS011;15525;45.568;5.448;2023-01-23T14:18:04;34.50;;;16.80;;
28266;SDS011;15525;45.568;5.448;2023-01-23T14:21:04;34.45;;;17.35;;
28266;SDS011;15525;45.568;5.448;2023-01-23T14:23:40;35.33;;;17.48;;
28266;SDS011;15525;45.568;5.448;2023-01-23T14:26:08;30.15;;;15.43;;
28266;SDS011;15525;45.568;5.448;2023-01-23T14:28:38;29.98;;;14.90;;
28266;SDS011;15525;45.568;5.448;2023-01-23T14:31:04;27.67;;;14.30;;
28266;SDS011;15525;45.568;5.448;2023-01-23T14:33:39;28.00;;;14.75;;
28266;SDS011;15525;45.568;5.448;2023-01-23T14:36:16;27.00;;;14.80;;
28266;SDS011;15525;45.568;5.448;2023-01-23T14:38:44;28.15;;;14.38;;
28266;SDS011;15525;45.568;5.448;2023-01-23T14:41:11;28.63;;;14.77;;
28266;SDS011;15525;45.568;5.448;2023-01-23T14:43:37;29.25;;;14.98;;
28266;SDS011;15525;45.568;5.448;2023-01-23T14:46:16;29.02;;;14.93;;
28266;SDS011;15525;45.568;5.448;2023-01-23T14:48:47;28.73;;;15.00;;
28266;SDS011;15525;45.568;5.448;2023-01-23T14:51:18;30.45;;;15.43;;
28266;SDS011;15525;45.568;5.448;2023-01-23T14:53:58;29.92;;;14.35;;
28266;SDS011;15525;45.568;5.448;2023-01-23T14:56:27;28.00;;;14.30;;
28266;SDS011;15525;45.568;5.448;2023-01-23T14:58:56;28.95;;;15.20;;
28266;SDS011;15525;45.568;5.448;2023-01-23T15:01:23;30.35;;;16.02;;
28266;SDS011;15525;45.568;5.448;2023-01-23T15:03:56;28.52;;;15.05;;
28266;SDS011;15525;45.568;5.448;2023-01-23T15:06:22;27.70;;;14.88;;
28266;SDS011;15525;45.568;5.448;2023-01-23T15:08:48;30.52;;;14.90;;
28266;SDS011;15525;45.568;5.448;2023-01-23T15:11:15;29.63;;;14.48;;
28266;SDS011;15525;45.568;5.448;2023-01-23T15:13:45;31.45;;;15.00;;
28266;SDS011;15525;45.568;5.448;2023-01-23T15:16:22;35.60;;;16.00;;
28266;SDS011;15525;45.568;5.448;2023-01-23T15:26:37;34.25;;;17.00;;
28266;SDS011;15525;45.568;5.448;2023-01-23T15:36:43;30.00;;;15.43;;
28266;SDS011;15525;45.568;5.448;2023-01-23T15:39:15;28.42;;;14.60;;
28266;SDS011;15525;45.568;5.448;2023-01-23T15:41:48;29.63;;;14.70;;
28266;SDS011;15525;45.568;5.448;2023-01-23T15:44:17;32.65;;;15.52;;
28266;SDS011;15525;45.568;5.448;2023-01-23T15:46:44;33.17;;;16.38;;
28266;SDS011;15525;45.568;5.448;2023-01-23T15:49:09;30.45;;;15.52;;
28266;SDS011;15525;45.568;5.448;2023-01-23T15:51:35;30.13;;;15.05;;
28266;SDS011;15525;45.568;5.448;2023-01-23T15:54:02;31.98;;;14.32;;
28266;SDS011;15525;45.568;5.448;2023-01-23T15:56:29;25.92;;;14.25;;
28266;SDS011;15525;45.568;5.448;2023-01-23T15:58:56;30.30;;;15.18;;
28266;SDS011;15525;45.568;5.448;2023-01-23T16:01:23;29.08;;;14.80;;
28266;SDS011;15525;45.568;5.448;2023-01-23T16:03:48;30.17;;;14.38;;
28266;SDS011;15525;45.568;5.448;2023-01-23T16:06:18;28.40;;;14.35;;
28266;SDS011;15525;45.568;5.448;2023-01-23T16:08:46;30.75;;;14.98;;
28266;SDS011;15525;45.568;5.448;2023-01-23T16:11:12;29.00;;;14.48;;
28266;SDS011;15525;45.568;5.448;2023-01-23T16:13:38;30.02;;;14.75;;
28266;SDS011;15525;45.568;5.448;2023-01-23T16:16:10;55.33;;;20.83;;
28266;SDS011;15525;45.568;5.448;2023-01-23T16:18:37;45.88;;;19.02;;
28266;SDS011;15525;45.568;5.448;2023-01-23T16:21:02;51.72;;;20.48;;
28266;SDS011;15525;45.568;5.448;2023-01-23T16:23:28;46.35;;;19.98;;
28266;SDS011;15525;45.568;5.448;2023-01-23T16:25:54;50.42;;;19.88;;
28266;SDS011;15525;45.568;5.448;2023-01-23T16:28:20;34.22;;;15.90;;
28266;SDS011;15525;45.568;5.448;2023-01-23T16:30:48;37.88;;;16.92;;
28266;SDS011;15525;45.568;5.448;2023-01-23T16:33:14;39.42;;;16.98;;
28266;SDS011;15525;45.568;5.448;2023-01-23T16:35:40;36.45;;;18.10;;
28266;SDS011;15525;45.568;5.448;2023-01-23T16:38:06;31.40;;;16.27;;